Airfield :
LOGIN :

Register | Disclaimer

   EN    FR    IT 

 










Legend :    VFR   Marginal VFR   IFR   Intensive IFR   Very Intensive IFR
Visi :
Ceiling :
>= 8 km
>= 3000ft
5 to 8 km
1000 to 3000 ft
1500m to 5 km
500 to 1000 ft
800 to 1500m
200 to 500 ft
< 800m
< 200 ft
Symbols :   Thunderstorms  Fog  Heavy snow  Heavy precipitations  Wind > 20 kt
SIGMETs :     Misc.  Thunderstorms  Icing  Turbulence  Mountain Waves  Volcanic Ashes






- Airport Elevation : 14 ft
- IATA code : BRE


EDDW - Bremen Neuenland

CURRENT METAR :
  • 110120Z 07007KT CAVOK 20/17 Q1018

EXPIRED METARs :
  • 110050Z 07007KT CAVOK 20/16 Q1018
  • 110020Z 08007KT CAVOK 20/16 Q1018
  • 102350Z 07008KT CAVOK 21/17 Q1018
  • 102320Z 08008KT CAVOK 21/17 Q1018
  • 102250Z 07007KT CAVOK 22/17 Q1018

TAF TAF EDDW
Valid from the 11 at 00:00 until the 12 at 00:00 UTC


102300Z 1100/1124 09006KT CAVOK
BECMG 1107/1109 09011KT
BECMG 1117/1119 08006KT



MET'MAP, your aeronautical weather chart ! - Copyright ORBIFLY December 2007 - Disclaimer

ORBIFLY MET'MAP TEAM :

Programming & Development : Alexandra Zaïnal
Concept & original design : Baudouin d'Aumeries
Assistance for programming : Marc-Olivier Méhu
Technical & hardware support : Manuel Goepfert

Contact : metmap@orbifly.com




SOURCES & CREDITS :

   NOAA